Time;durP1;ratioP1;P1;durP2;ratioP2;P2;SDS_P1;SDS_P2;PMS_P1;PMS_P2;Temp;Humidity;BMP_temperature;BMP_pressure;BME280_temperature;BME280_humidity;BME280_pressure;Samples;Min_cycle;Max_cycle;Signal;HPM_P1;HPM_P2
2022/01/22 00:00:09;;;;;;;9.18;6.50;;;1.90;99.90;;;;;;5009333;28;20022;-64
2022/01/22 00:02:35;;;;;;;5.20;4.47;;;1.90;99.90;;;;;;5010573;28;20030;-63
2022/01/22 00:05:01;;;;;;;5.18;4.68;;;1.90;99.90;;;;;;5009601;28;20507;-64
2022/01/22 00:07:27;;;;;;;5.55;4.88;;;2.00;99.90;;;;;;5009258;28;20030;-65
2022/01/22 00:09:59;;;;;;;5.80;5.20;;;1.90;99.90;;;;;;5010594;28;20030;-65
2022/01/22 00:13:06;;;;;;;6.50;5.90;;;2.00;99.90;;;;;;5006606;28;20508;-64
2022/01/22 00:15:14;;;;;;;6.40;5.28;;;2.00;99.90;;;;;;5007033;28;20217;-64
2022/01/22 00:17:40;;;;;;;5.53;4.78;;;2.00;99.90;;;;;;5007620;28;20428;-63
2022/01/22 00:20:07;;;;;;;5.47;4.95;;;2.00;99.90;;;;;;5008632;28;20042;-64
2022/01/22 00:22:35;;;;;;;6.75;4.00;;;2.00;99.90;;;;;;5008523;28;20034;-64
2022/01/22 00:25:02;;;;;;;5.57;4.97;;;2.00;99.90;;;;;;5007769;28;20112;-64
2022/01/22 00:27:28;;;;;;;7.53;5.72;;;2.00;99.90;;;;;;5007431;28;20120;-64
2022/01/22 00:29:55;;;;;;;7.00;5.97;;;2.00;99.90;;;;;;5006674;28;20018;-64
2022/01/22 00:32:21;;;;;;;5.53;4.93;;;2.10;99.90;;;;;;5010208;28;20033;-65
2022/01/22 00:34:47;;;;;;;7.47;5.63;;;2.10;99.90;;;;;;5008611;28;20041;-64
2022/01/22 00:37:13;;;;;;;5.40;4.85;;;2.10;99.90;;;;;;5007198;28;20042;-64
2022/01/22 00:39:38;;;;;;;5.95;5.35;;;2.10;99.90;;;;;;5007121;28;20037;-63
2022/01/22 00:42:14;;;;;;;6.40;5.45;;;2.10;99.90;;;;;;5008664;28;20393;-63
2022/01/22 00:44:40;;;;;;;6.18;5.15;;;2.10;99.90;;;;;;5009263;28;20152;-63
2022/01/22 00:47:06;;;;;;;7.05;5.53;;;2.10;99.90;;;;;;5006090;28;20104;-64
2022/01/22 00:49:33;;;;;;;6.70;5.93;;;2.10;99.90;;;;;;5008566;28;20430;-64
2022/01/22 00:51:59;;;;;;;6.47;5.88;;;2.10;99.90;;;;;;5008866;28;20038;-64
2022/01/22 00:54:24;;;;;;;6.72;6.03;;;2.10;99.90;;;;;;5008993;28;20022;-63
2022/01/22 00:56:50;;;;;;;7.18;5.72;;;2.10;99.90;;;;;;5009189;28;20034;-63
2022/01/22 00:59:16;;;;;;;6.88;6.22;;;2.10;99.90;;;;;;5008573;28;20093;-63
2022/01/22 01:01:42;;;;;;;11.82;5.75;;;2.10;99.90;;;;;;5008945;28;20062;-64
2022/01/22 01:04:23;;;;;;;10.40;6.47;;;2.10;99.90;;;;;;5007232;28;20026;-64
2022/01/22 01:06:49;;;;;;;7.28;5.75;;;2.10;99.90;;;;;;5006984;28;20056;-64
2022/01/22 01:09:14;;;;;;;6.38;5.03;;;2.10;99.90;;;;;;5009689;28;20108;-64
2022/01/22 01:11:51;;;;;;;6.30;5.68;;;2.10;99.90;;;;;;5007145;28;20116;-64
2022/01/22 01:14:24;;;;;;;7.80;6.78;;;2.10;99.90;;;;;;5008947;28;20026;-63
2022/01/22 01:33:29;;;;;;;8.18;6.43;;;2.20;99.90;;;;;;5008223;28;20108;-63
2022/01/22 01:35:54;;;;;;;8.32;6.82;;;2.30;99.90;;;;;;5007221;28;20045;-64
2022/01/22 01:38:22;;;;;;;8.25;6.93;;;2.30;99.90;;;;;;5008111;28;20033;-64
2022/01/22 01:40:57;;;;;;;7.63;6.80;;;2.20;99.90;;;;;;5008030;28;20033;-63
2022/01/22 01:43:29;;;;;;;8.18;6.40;;;2.30;99.90;;;;;;5008239;28;20026;-63
2022/01/22 01:45:54;;;;;;;8.00;6.55;;;2.30;99.90;;;;;;5007096;28;20076;-63
2022/01/22 01:48:25;;;;;;;9.13;7.03;;;2.30;99.90;;;;;;5006261;28;20768;-63
2022/01/22 01:50:51;;;;;;;7.97;6.70;;;2.30;99.90;;;;;;5007510;28;20173;-63
2022/01/22 01:53:32;;;;;;;11.35;8.05;;;2.30;99.90;;;;;;5005880;28;20111;-64
2022/01/22 01:58:24;;;;;;;8.68;7.72;;;2.30;99.90;;;;;;5008345;28;20579;-63
2022/01/22 02:00:50;;;;;;;8.52;7.13;;;2.30;99.90;;;;;;5003402;28;20082;-64
2022/01/22 02:03:17;;;;;;;10.50;6.85;;;2.30;99.90;;;;;;5008234;28;20025;-64
2022/01/22 02:05:42;;;;;;;9.32;6.95;;;2.30;99.90;;;;;;5005653;28;20497;-64
2022/01/22 02:08:09;;;;;;;7.85;7.05;;;2.30;99.90;;;;;;5007919;28;20018;-63
2022/01/22 02:10:42;;;;;;;7.35;6.50;;;2.30;99.90;;;;;;5006645;28;20026;-63
2022/01/22 02:24:55;;;;;;;7.88;6.03;;;2.40;99.90;;;;;;5005179;28;20037;-63
2022/01/22 02:27:21;;;;;;;8.25;6.55;;;2.40;99.90;;;;;;5007554;28;20141;-63
2022/01/22 02:29:47;;;;;;;8.07;6.63;;;2.40;99.90;;;;;;4996799;28;20536;-65
2022/01/22 02:35:14;;;;;;;9.25;7.47;;;2.40;99.90;;;;;;5006030;28;20018;-64
2022/01/22 02:37:47;;;;;;;11.13;8.13;;;2.40;99.90;;;;;;5006020;28;20030;-63
2022/01/22 02:40:29;;;;;;;8.55;5.95;;;2.40;99.90;;;;;;5006561;28;20030;-64
2022/01/22 02:42:54;;;;;;;8.43;6.90;;;2.40;99.90;;;;;;5007367;28;20525;-63
2022/01/22 02:45:23;;;;;;;8.05;6.13;;;2.50;99.90;;;;;;5007703;28;20034;-64
2022/01/22 02:47:50;;;;;;;11.82;7.18;;;2.50;99.90;;;;;;5004146;28;20065;-63
2022/01/22 02:50:17;;;;;;;9.75;7.00;;;2.50;99.90;;;;;;5008304;28;20176;-63
2022/01/22 02:52:43;;;;;;;9.70;7.13;;;2.50;99.90;;;;;;5009078;28;20065;-63
2022/01/22 02:55:11;;;;;;;8.88;7.63;;;2.50;99.90;;;;;;5010708;28;20050;-63
2022/01/22 02:57:38;;;;;;;10.75;7.03;;;2.50;99.90;;;;;;5010537;28;20026;-63
2022/01/22 03:00:07;;;;;;;9.63;7.55;;;2.50;99.90;;;;;;5009306;28;20058;-63
2022/01/22 03:02:33;;;;;;;10.10;7.72;;;2.50;99.90;;;;;;5008762;28;20120;-64
2022/01/22 03:05:00;;;;;;;12.02;8.35;;;2.50;99.90;;;;;;5007525;28;20553;-64
2022/01/22 03:07:25;;;;;;;8.75;6.88;;;2.50;99.90;;;;;;5011594;28;20417;-63
2022/01/22 03:09:53;;;;;;;7.68;6.50;;;2.50;99.90;;;;;;5011541;28;20037;-64
2022/01/22 03:27:35;;;;;;;8.32;7.13;;;2.50;99.90;;;;;;5010539;28;20032;-63
2022/01/22 03:30:02;;;;;;;10.13;8.20;;;2.50;99.90;;;;;;5009393;28;20030;-63
2022/01/22 03:32:34;;;;;;;11.57;8.40;;;2.60;99.90;;;;;;5009224;28;20113;-64
2022/01/22 03:35:53;;;;;;;9.75;8.00;;;2.50;99.90;;;;;;5008526;28;20030;-63
2022/01/22 03:37:51;;;;;;;11.52;6.90;;;2.60;99.90;;;;;;5008765;28;20034;-64
2022/01/22 03:40:21;;;;;;;9.85;7.43;;;2.60;99.90;;;;;;5009225;28;20096;-63
2022/01/22 03:42:48;;;;;;;13.48;7.47;;;2.60;99.90;;;;;;5007357;28;20569;-63
2022/01/22 03:45:14;;;;;;;9.05;7.32;;;2.60;99.90;;;;;;5008451;28;20544;-64
2022/01/22 03:47:40;;;;;;;10.52;8.45;;;2.60;99.90;;;;;;5008936;28;20033;-63
2022/01/22 03:50:09;;;;;;;12.80;7.65;;;2.60;99.90;;;;;;5008996;28;20085;-66
2022/01/22 03:52:35;;;;;;;10.80;7.93;;;2.60;99.90;;;;;;5009858;28;20030;-65
2022/01/22 03:55:01;;;;;;;12.20;7.63;;;2.60;99.90;;;;;;5005746;28;20089;-64
2022/01/22 03:57:27;;;;;;;7.57;6.68;;;2.60;99.90;;;;;;5009773;28;20036;-64
2022/01/22 03:59:55;;;;;;;7.65;6.43;;;2.60;99.90;;;;;;5007207;28;20152;-64
2022/01/22 04:05:02;;;;;;;9.30;7.82;;;2.60;99.90;;;;;;5007375;28;20026;-63
2022/01/22 04:10:02;;;;;;;8.85;6.43;;;2.60;99.90;;;;;;5008982;28;20041;-64
2022/01/22 04:15:27;;;;;;;8.80;6.57;;;2.60;99.90;;;;;;5004822;28;20483;-64
2022/01/22 04:26:20;;;;;;;6.57;5.80;;;2.70;99.90;;;;;;5009854;28;20084;-64
2022/01/22 04:28:46;;;;;;;8.40;6.57;;;2.70;99.90;;;;;;5004961;28;20053;-65
2022/01/22 04:31:11;;;;;;;7.78;6.82;;;2.70;99.90;;;;;;5010114;28;20034;-63
2022/01/22 04:33:38;;;;;;;7.43;6.20;;;2.70;99.90;;;;;;5009779;28;20431;-64
2022/01/22 04:36:04;;;;;;;9.90;6.32;;;2.70;99.90;;;;;;5009008;28;20393;-64
2022/01/22 04:38:30;;;;;;;10.70;6.90;;;2.70;99.90;;;;;;5009619;28;20026;-65
2022/01/22 04:40:56;;;;;;;9.23;6.38;;;2.70;99.90;;;;;;5009484;28;20042;-63
2022/01/22 04:43:21;;;;;;;9.30;6.50;;;2.70;99.90;;;;;;5010081;28;20034;-63
2022/01/22 04:56:46;;;;;;;8.98;5.72;;;2.70;99.90;;;;;;5009046;28;20048;-64
2022/01/22 04:59:12;;;;;;;6.75;5.32;;;2.80;99.90;;;;;;5008070;28;20092;-64
2022/01/22 05:01:38;;;;;;;7.13;5.43;;;2.70;99.90;;;;;;5008655;28;20029;-64
2022/01/22 05:04:04;;;;;;;7.45;5.50;;;2.70;99.90;;;;;;5009166;28;20481;-64
2022/01/22 05:06:30;;;;;;;11.32;7.90;;;2.70;99.90;;;;;;5007490;28;20083;-65
2022/01/22 05:09:05;;;;;;;9.63;6.78;;;2.70;99.90;;;;;;5008949;28;20034;-64
2022/01/22 05:11:30;;;;;;;7.13;6.28;;;2.70;99.90;;;;;;5007565;28;20034;-64
2022/01/22 05:14:05;;;;;;;7.68;6.10;;;2.70;99.90;;;;;;5008578;28;20096;-64
2022/01/22 05:16:31;;;;;;;7.75;5.38;;;2.70;99.90;;;;;;5003685;28;20030;-64
2022/01/22 05:19:21;;;;;;;6.72;5.55;;;2.70;99.90;;;;;;5007712;28;20042;-64
2022/01/22 05:21:49;;;;;;;6.90;5.60;;;2.70;99.90;;;;;;5007390;28;20540;-64
2022/01/22 05:24:20;;;;;;;7.07;5.50;;;2.70;99.90;;;;;;5007434;28;20037;-64
2022/01/22 05:30:00;;;;;;;6.25;4.80;;;2.80;99.90;;;;;;5005599;28;20437;-64
2022/01/22 05:37:36;;;;;;;6.07;4.70;;;2.70;99.90;;;;;;4967308;28;20038;-64
2022/01/22 05:40:03;;;;;;;7.05;4.82;;;2.80;99.90;;;;;;5006061;28;20048;-64
2022/01/22 05:42:28;;;;;;;6.57;5.00;;;2.80;99.90;;;;;;5005886;28;20026;-64
2022/01/22 05:44:54;;;;;;;4.85;3.80;;;2.80;99.90;;;;;;5008952;28;20077;-64
2022/01/22 05:47:23;;;;;;;6.28;4.97;;;2.80;99.90;;;;;;5007938;28;20473;-64
2022/01/22 05:49:49;;;;;;;5.25;4.30;;;2.80;99.90;;;;;;4997645;28;20101;-64
2022/01/22 05:52:21;;;;;;;5.03;4.22;;;2.80;99.90;;;;;;5006439;28;20026;-63
2022/01/22 06:00:12;;;;;;;5.07;4.57;;;2.80;99.90;;;;;;5006944;28;20036;-64
2022/01/22 06:02:37;;;;;;;5.75;4.75;;;2.80;99.90;;;;;;5007281;28;20468;-65
2022/01/22 06:05:03;;;;;;;6.05;4.45;;;2.90;99.90;;;;;;5007069;28;20057;-65
2022/01/22 06:07:29;;;;;;;5.75;4.85;;;2.90;99.90;;;;;;5007013;28;20481;-65
2022/01/22 06:15:07;;;;;;;5.90;4.82;;;2.90;99.90;;;;;;5002905;28;20049;-65
2022/01/22 06:17:33;;;;;;;6.55;4.65;;;2.90;99.90;;;;;;5006066;28;20030;-65
2022/01/22 06:19:59;;;;;;;5.03;4.53;;;2.90;99.90;;;;;;5008299;28;20049;-65
2022/01/22 06:22:24;;;;;;;5.53;4.80;;;3.00;99.90;;;;;;5005159;28;20124;-66
2022/01/22 06:24:53;;;;;;;8.90;7.15;;;3.00;99.90;;;;;;5005548;28;20034;-66
2022/01/22 06:27:19;;;;;;;6.38;5.75;;;3.00;99.90;;;;;;5009470;28;20033;-65
2022/01/22 06:29:44;;;;;;;7.22;5.95;;;2.90;99.90;;;;;;5011676;28;20040;-65
2022/01/22 06:32:10;;;;;;;7.75;7.00;;;2.90;99.90;;;;;;5010848;28;20460;-65
2022/01/22 06:34:36;;;;;;;8.30;7.28;;;2.90;99.90;;;;;;5009349;28;20109;-65
2022/01/22 06:37:01;;;;;;;8.32;6.45;;;2.90;99.90;;;;;;5010930;28;20057;-66
2022/01/22 06:39:27;;;;;;;6.65;5.95;;;3.00;99.90;;;;;;5010792;28;20393;-66
2022/01/22 06:41:53;;;;;;;6.93;6.22;;;2.90;99.90;;;;;;5011058;28;20010;-65
2022/01/22 06:44:24;;;;;;;6.40;5.80;;;2.90;99.90;;;;;;5010569;28;20040;-65
2022/01/22 06:46:54;;;;;;;10.10;6.78;;;2.90;99.90;;;;;;5010727;28;20018;-66
2022/01/22 06:49:20;;;;;;;8.10;6.90;;;3.00;99.90;;;;;;5009853;28;20025;-66
2022/01/22 06:51:46;;;;;;;9.23;7.15;;;3.00;99.90;;;;;;5010543;28;20022;-66
2022/01/22 06:54:15;;;;;;;7.57;6.88;;;2.90;99.90;;;;;;5007828;28;20508;-66
2022/01/22 06:56:41;;;;;;;11.25;7.90;;;3.00;99.90;;;;;;5009706;28;20061;-66
2022/01/22 06:59:11;;;;;;;9.10;8.20;;;2.90;99.90;;;;;;5010883;28;20127;-66
2022/01/22 07:01:37;;;;;;;9.87;7.73;;;2.90;99.90;;;;;;5009215;28;20030;-66
2022/01/22 07:04:03;;;;;;;10.13;7.38;;;3.00;99.90;;;;;;5010819;28;20034;-66
2022/01/22 07:06:29;;;;;;;8.82;7.57;;;2.90;99.90;;;;;;5011378;28;20481;-66
2022/01/22 07:09:01;;;;;;;9.32;8.20;;;3.00;99.90;;;;;;5011575;28;20030;-65
2022/01/22 07:11:26;;;;;;;9.48;7.68;;;3.00;99.90;;;;;;5010571;28;20057;-65
2022/01/22 07:13:52;;;;;;;8.35;7.47;;;3.00;99.90;;;;;;5010715;28;20026;-66
2022/01/22 07:16:18;;;;;;;10.65;8.10;;;3.00;99.90;;;;;;5008414;28;20063;-66
2022/01/22 07:18:44;;;;;;;10.18;7.35;;;3.00;99.90;;;;;;5010349;28;20519;-65
2022/01/22 07:21:21;;;;;;;9.82;8.07;;;3.00;99.90;;;;;;5009214;28;20041;-66
2022/01/22 07:26:33;;;;;;;;;;;3.00;99.90;;;;;;5010974;28;20026;-66
2022/01/22 07:28:59;;;;;;;;;;;3.00;99.90;;;;;;5010455;28;19915;-66
2022/01/22 07:31:25;;;;;;;10.88;7.82;;;3.10;99.90;;;;;;5010589;28;19916;-66
2022/01/22 07:33:51;;;;;;;11.65;9.00;;;3.10;99.90;;;;;;5008947;28;20026;-66
2022/01/22 07:36:17;;;;;;;11.40;10.10;;;3.10;99.90;;;;;;5010858;28;20040;-66
2022/01/22 07:38:43;;;;;;;10.15;8.65;;;3.10;99.90;;;;;;5007852;28;20034;-66
2022/01/22 07:41:09;;;;;;;14.13;10.52;;;3.00;99.90;;;;;;5008502;28;20536;-66
2022/01/22 07:43:36;;;;;;;14.88;8.63;;;3.00;99.90;;;;;;5010816;28;20030;-66
2022/01/22 07:46:02;;;;;;;9.00;8.07;;;3.00;99.90;;;;;;5009508;28;20041;-66
2022/01/22 07:48:27;;;;;;;9.52;8.55;;;3.00;99.90;;;;;;5009567;28;20484;-66
2022/01/22 07:50:53;;;;;;;9.45;8.50;;;3.10;99.90;;;;;;5009177;28;20030;-66
2022/01/22 07:53:19;;;;;;;9.48;8.50;;;3.10;99.90;;;;;;5009601;28;20394;-66
2022/01/22 07:55:44;;;;;;;9.07;8.07;;;3.10;99.90;;;;;;5004592;28;20579;-66
2022/01/22 07:58:14;;;;;;;9.02;7.68;;;3.20;99.90;;;;;;5009746;28;20045;-66
2022/01/22 08:00:40;;;;;;;8.55;7.55;;;3.20;99.90;;;;;;5010063;28;20092;-67
2022/01/22 08:03:08;;;;;;;8.02;7.10;;;3.20;99.90;;;;;;5006668;28;20021;-66
2022/01/22 08:05:35;;;;;;;7.88;7.07;;;3.30;99.90;;;;;;5008425;28;20026;-66
2022/01/22 08:08:01;;;;;;;8.50;7.55;;;3.30;99.90;;;;;;5008795;28;20034;-66
2022/01/22 08:10:26;;;;;;;7.45;6.47;;;3.30;99.90;;;;;;5008919;28;20057;-67
2022/01/22 08:12:53;;;;;;;6.97;6.30;;;3.30;99.90;;;;;;5009720;28;20022;-66
2022/01/22 08:15:20;;;;;;;7.90;7.03;;;3.30;99.90;;;;;;5008287;28;20022;-67
2022/01/22 08:17:46;;;;;;;9.75;6.03;;;3.40;99.90;;;;;;5008219;28;20026;-67
2022/01/22 08:20:16;;;;;;;6.20;5.47;;;3.40;99.90;;;;;;5010557;28;20045;-66
2022/01/22 08:22:45;;;;;;;6.65;5.95;;;3.40;99.90;;;;;;5008048;28;20034;-66
2022/01/22 08:25:11;;;;;;;6.55;5.80;;;3.40;99.90;;;;;;5007331;28;20065;-66
2022/01/22 08:28:52;;;;;;;5.88;5.18;;;3.50;99.90;;;;;;5007600;28;20092;-66
2022/01/22 08:30:32;;;;;;;5.50;5.00;;;3.50;99.90;;;;;;5008620;28;20396;-66
2022/01/22 08:33:21;;;;;;;5.50;4.95;;;3.60;99.90;;;;;;5008678;28;20017;-66
2022/01/22 08:35:54;;;;;;;4.57;4.18;;;3.60;99.90;;;;;;5007307;28;20029;-66
2022/01/22 08:38:26;;;;;;;5.18;4.68;;;3.60;99.90;;;;;;5008940;28;20034;-66
2022/01/22 08:40:52;;;;;;;5.55;4.97;;;3.60;99.90;;;;;;5008111;28;20497;-66
2022/01/22 08:43:18;;;;;;;5.88;5.03;;;3.60;99.90;;;;;;5007095;28;20394;-66
2022/01/22 08:45:45;;;;;;;6.78;5.25;;;3.70;99.90;;;;;;5008895;28;20034;-66
2022/01/22 08:48:14;;;;;;;5.32;4.82;;;3.70;99.90;;;;;;5009968;28;20022;-66
2022/01/22 08:50:39;;;;;;;4.97;4.35;;;3.70;99.90;;;;;;5007751;28;20025;-66
2022/01/22 08:53:08;;;;;;;5.10;4.60;;;3.80;99.90;;;;;;5007827;28;20037;-66
2022/01/22 08:55:36;;;;;;;6.07;5.47;;;3.80;99.90;;;;;;5006697;28;20104;-66
2022/01/22 08:58:02;;;;;;;6.30;5.70;;;3.90;99.90;;;;;;5006622;28;20030;-67
2022/01/22 09:00:28;;;;;;;3.03;2.80;;;3.90;99.90;;;;;;5008044;28;20032;-67
2022/01/22 09:02:54;;;;;;;3.80;3.10;;;3.90;99.90;;;;;;5008190;28;20489;-67
2022/01/22 09:05:23;;;;;;;1.63;1.52;;;3.90;99.90;;;;;;5009322;28;20785;-67
2022/01/22 09:07:49;;;;;;;2.42;2.03;;;4.00;99.90;;;;;;5006212;28;20044;-67
2022/01/22 09:10:14;;;;;;;1.92;1.27;;;4.10;99.90;;;;;;5006820;28;20125;-67
2022/01/22 09:12:41;;;;;;;1.30;1.10;;;4.10;99.90;;;;;;4996300;28;20389;-67
2022/01/22 09:15:07;;;;;;;2.53;1.95;;;4.10;99.90;;;;;;5008823;28;20109;-66
2022/01/22 09:17:33;;;;;;;1.55;1.10;;;4.30;99.90;;;;;;5007477;28;20057;-67
2022/01/22 09:20:01;;;;;;;1.90;1.50;;;4.40;99.90;;;;;;5007655;28;20042;-67
2022/01/22 09:22:26;;;;;;;0.98;0.95;;;4.50;99.90;;;;;;5005243;28;20494;-67
2022/01/22 09:24:52;;;;;;;2.47;2.22;;;4.50;99.90;;;;;;5007516;28;20038;-67
2022/01/22 09:27:20;;;;;;;3.70;3.17;;;4.50;99.90;;;;;;5008606;28;20026;-72
2022/01/22 09:29:47;;;;;;;3.78;2.90;;;4.60;99.90;;;;;;5008468;28;20077;-67
2022/01/22 09:32:13;;;;;;;3.10;2.80;;;4.50;99.90;;;;;;5002175;28;20026;-67
2022/01/22 09:34:40;;;;;;;3.85;2.60;;;4.60;99.90;;;;;;5004993;28;20076;-67
2022/01/22 09:37:06;;;;;;;3.42;2.60;;;4.50;99.90;;;;;;5007871;28;20038;-67
2022/01/22 09:39:31;;;;;;;2.97;2.67;;;4.60;99.90;;;;;;5006547;28;20040;-67
2022/01/22 09:41:58;;;;;;;4.20;3.28;;;4.60;99.90;;;;;;5008152;28;20019;-67
2022/01/22 09:44:24;;;;;;;3.63;3.00;;;4.60;99.90;;;;;;5007201;28;20600;-68
2022/01/22 09:46:50;;;;;;;4.28;3.88;;;4.60;99.90;;;;;;5005635;28;20018;-67
2022/01/22 09:49:16;;;;;;;3.38;3.05;;;4.60;99.90;;;;;;4999178;28;20656;-67
2022/01/22 09:51:42;;;;;;;4.53;3.97;;;4.60;99.90;;;;;;5005998;28;20022;-67
2022/01/22 09:54:10;;;;;;;4.00;3.50;;;4.60;99.90;;;;;;5007689;28;20520;-67
2022/01/22 09:56:36;;;;;;;3.47;3.17;;;4.60;99.90;;;;;;5007666;28;20034;-67
2022/01/22 09:59:05;;;;;;;3.40;3.10;;;4.70;99.90;;;;;;5007140;28;20041;-67
2022/01/22 10:01:40;;;;;;;2.72;2.38;;;4.70;99.90;;;;;;5006535;28;20125;-67
2022/01/22 10:04:08;;;;;;;3.22;2.90;;;4.70;99.90;;;;;;4998411;28;20025;-67
2022/01/22 10:06:49;;;;;;;5.18;2.97;;;4.70;99.90;;;;;;5007211;28;20118;-68
2022/01/22 10:09:25;;;;;;;;;;;4.80;99.90;;;;;;5005688;28;20057;-67
2022/01/22 10:12:11;;;;;;;3.00;2.70;;;4.80;99.90;;;;;;4996740;28;19967;-67
2022/01/22 10:15:10;;;;;;;4.10;3.50;;;4.80;99.90;;;;;;5005997;28;20030;-67
2022/01/22 10:17:49;;;;;;;4.13;3.35;;;4.80;99.90;;;;;;5005698;28;20449;-68
2022/01/22 10:20:24;;;;;;;8.05;3.55;;;4.90;99.90;;;;;;5007250;28;20037;-67
2022/01/22 10:22:57;;;;;;;3.30;2.88;;;5.00;99.90;;;;;;5005982;28;20026;-67
2022/01/22 10:25:59;;;;;;;4.53;3.60;;;5.10;99.90;;;;;;5012339;28;20397;-67
2022/01/22 10:28:27;;;;;;;5.80;3.42;;;5.10;99.90;;;;;;5006424;28;20034;-67
2022/01/22 10:31:03;;;;;;;3.25;2.90;;;5.10;99.90;;;;;;5007026;28;20030;-67
2022/01/22 10:33:35;;;;;;;4.30;2.85;;;5.20;99.90;;;;;;5005863;28;20405;-68
2022/01/22 10:36:16;;;;;;;3.60;2.90;;;5.20;99.90;;;;;;5002243;28;20042;-67
2022/01/22 10:38:53;;;;;;;3.28;2.75;;;5.20;99.90;;;;;;5007065;28;20058;-68
2022/01/22 10:41:35;;;;;;;3.40;2.78;;;5.30;99.90;;;;;;5007911;28;20110;-67
2022/01/22 10:44:02;;;;;;;3.03;2.72;;;5.30;99.90;;;;;;5007335;28;20109;-67
2022/01/22 10:46:43;;;;;;;3.13;2.83;;;5.40;99.90;;;;;;5007390;28;20038;-68
2022/01/22 10:49:13;;;;;;;3.42;3.03;;;5.30;99.90;;;;;;5007022;28;20038;-68
2022/01/22 10:51:44;;;;;;;2.72;2.53;;;5.30;99.90;;;;;;5006233;28;20034;-68
2022/01/22 10:54:11;;;;;;;5.07;4.60;;;5.40;99.90;;;;;;5006730;28;20473;-67
2022/01/22 10:56:39;;;;;;;3.35;2.85;;;5.40;99.90;;;;;;5005707;28;20551;-67
2022/01/22 10:59:19;;;;;;;3.60;3.22;;;5.40;99.90;;;;;;5005750;28;20433;-68
2022/01/22 11:01:44;;;;;;;3.55;2.65;;;5.50;99.90;;;;;;4998917;28;20661;-67
2022/01/22 11:04:13;;;;;;;4.05;3.65;;;5.50;99.90;;;;;;5005986;28;20112;-68
2022/01/22 11:06:46;;;;;;;2.85;2.35;;;5.60;99.90;;;;;;5006743;28;20026;-68
2022/01/22 11:09:11;;;;;;;2.60;1.95;;;5.60;99.90;;;;;;5005832;28;20610;-68
2022/01/22 11:11:41;;;;;;;2.97;2.40;;;5.50;99.90;;;;;;5007596;28;20061;-67
2022/01/22 11:14:09;;;;;;;3.10;2.15;;;5.50;99.90;;;;;;5005771;28;20080;-68
2022/01/22 11:16:40;;;;;;;2.22;2.03;;;5.50;99.90;;;;;;5009167;28;20029;-69
2022/01/22 11:19:10;;;;;;;2.42;1.95;;;5.50;99.90;;;;;;5010636;28;20113;-68
2022/01/22 11:21:41;;;;;;;2.80;2.47;;;5.50;99.90;;;;;;5008367;28;20026;-68
2022/01/22 11:24:11;;;;;;;2.00;1.70;;;5.50;99.90;;;;;;5009796;28;20326;-68
2022/01/22 11:26:42;;;;;;;2.38;2.05;;;5.40;99.90;;;;;;5010433;28;20049;-68
2022/01/22 11:29:09;;;;;;;3.00;1.90;;;5.40;99.90;;;;;;5011379;28;20026;-68
2022/01/22 11:31:37;;;;;;;3.10;1.90;;;5.40;99.90;;;;;;5010357;28;20044;-68
2022/01/22 11:34:04;;;;;;;2.50;1.85;;;5.40;99.90;;;;;;5008855;28;20026;-68
2022/01/22 11:36:40;;;;;;;2.35;1.95;;;5.50;99.90;;;;;;5010282;28;20048;-68
2022/01/22 11:39:15;;;;;;;2.28;2.08;;;5.40;99.90;;;;;;5009790;28;20022;-68
2022/01/22 11:41:54;;;;;;;2.42;2.10;;;5.40;99.90;;;;;;5006948;28;20018;-68
2022/01/22 11:44:51;;;;;;;2.40;2.20;;;5.50;99.90;;;;;;5007405;28;20034;-68
2022/01/22 11:47:22;;;;;;;3.50;2.35;;;5.50;99.90;;;;;;5008605;28;20026;-69
2022/01/22 11:50:07;;;;;;;3.33;2.55;;;5.50;99.90;;;;;;5009716;28;20177;-68
2022/01/22 11:52:40;;;;;;;4.15;3.35;;;5.50;99.90;;;;;;5009441;28;20061;-68
2022/01/22 11:55:09;;;;;;;5.15;3.45;;;5.50;99.90;;;;;;5000405;28;20046;-69
2022/01/22 11:57:34;;;;;;;3.80;3.25;;;5.60;99.90;;;;;;5007662;28;20881;-68
2022/01/22 12:00:19;;;;;;;3.35;3.00;;;5.60;99.90;;;;;;5010025;28;20030;-68
2022/01/22 12:02:45;;;;;;;2.72;2.13;;;5.60;99.90;;;;;;5009636;28;20107;-68
2022/01/22 12:05:11;;;;;;;3.97;2.50;;;5.60;99.90;;;;;;5009770;28;20505;-69
2022/01/22 12:07:37;;;;;;;3.38;2.83;;;5.70;99.90;;;;;;5008950;28;20045;-68
2022/01/22 12:14:27;;;;;;;3.60;2.70;;;5.70;99.90;;;;;;5022461;28;20080;-67
2022/01/22 12:16:40;;;;;;;2.65;1.80;;;5.70;99.90;;;;;;5008584;28;20109;-68
2022/01/22 12:19:49;;;;;;;2.78;1.90;;;5.80;99.90;;;;;;5023105;28;20175;-69
2022/01/22 12:22:29;;;;;;;2.42;2.10;;;5.80;99.90;;;;;;5008477;28;20398;-68
2022/01/22 12:24:54;;;;;;;3.30;1.98;;;5.90;99.90;;;;;;5008048;28;20464;-70
2022/01/22 12:27:48;;;;;;;6.47;2.10;;;5.90;99.90;;;;;;5007913;28;20164;-68
2022/01/22 12:30:16;;;;;;;3.00;2.05;;;5.90;99.90;;;;;;5008891;28;20018;-69
2022/01/22 12:32:51;;;;;;;1.98;1.58;;;6.00;99.90;;;;;;5009703;28;20023;-68
2022/01/22 12:35:19;;;;;;;2.03;1.52;;;6.00;99.90;;;;;;5009160;28;20117;-68
2022/01/22 12:37:51;;;;;;;1.75;1.55;;;6.10;99.90;;;;;;5007568;28;20199;-68
2022/01/22 12:40:32;;;;;;;1.95;1.70;;;6.00;99.90;;;;;;5007489;28;20060;-69
2022/01/22 12:43:08;;;;;;;2.03;1.83;;;6.00;99.90;;;;;;5004053;28;20054;-69
2022/01/22 12:45:36;;;;;;;2.58;1.77;;;6.00;99.90;;;;;;5009762;28;20037;-68
2022/01/22 12:48:02;;;;;;;2.22;2.03;;;6.00;99.90;;;;;;5009609;28;20029;-68
2022/01/22 12:50:32;;;;;;;1.90;1.70;;;6.00;99.90;;;;;;5008338;28;20041;-69
2022/01/22 12:53:03;;;;;;;2.65;2.20;;;5.90;99.90;;;;;;5008885;28;20038;-69
2022/01/22 12:58:38;;;;;;;2.78;2.05;;;5.80;99.90;;;;;;5009762;28;20130;-68
2022/01/22 13:01:13;;;;;;;2.60;2.30;;;5.80;99.90;;;;;;5005185;28;20030;-69
2022/01/22 13:03:41;;;;;;;3.22;2.05;;;5.70;99.90;;;;;;5008636;28;20034;-69
2022/01/22 13:06:07;;;;;;;2.53;1.92;;;5.70;99.90;;;;;;5008810;28;20033;-68
2022/01/22 13:08:33;;;;;;;1.70;1.33;;;5.70;99.90;;;;;;5005516;28;20376;-68
2022/01/22 13:11:01;;;;;;;1.58;1.48;;;5.70;99.90;;;;;;5004042;28;20033;-68
2022/01/22 13:13:29;;;;;;;1.80;1.70;;;5.60;99.90;;;;;;5006252;28;20492;-68
2022/01/22 13:16:13;;;;;;;2.10;1.55;;;5.60;99.90;;;;;;5004409;28;20490;-69
2022/01/22 13:18:51;;;;;;;1.75;1.33;;;5.60;99.90;;;;;;5007221;28;20116;-68
2022/01/22 13:21:19;;;;;;;1.80;1.52;;;5.60;99.90;;;;;;5008855;28;20037;-68
2022/01/22 13:23:47;;;;;;;2.35;2.10;;;5.50;99.90;;;;;;5008684;28;20385;-69
2022/01/22 13:26:13;;;;;;;2.45;1.88;;;5.50;99.90;;;;;;5003430;28;20038;-68
2022/01/22 13:28:39;;;;;;;2.47;1.83;;;5.50;99.90;;;;;;5008542;28;20036;-68
2022/01/22 13:31:17;;;;;;;2.72;1.88;;;5.50;99.90;;;;;;5005617;28;20034;-68
2022/01/22 13:33:51;;;;;;;1.98;1.77;;;5.50;99.90;;;;;;5008154;28;20038;-69
2022/01/22 13:36:40;;;;;;;2.10;1.70;;;5.50;99.90;;;;;;5007479;28;20033;-68
2022/01/22 13:49:56;;;;;;;2.58;2.17;;;5.40;99.90;;;;;;5002774;28;20060;-69
2022/01/22 13:52:28;;;;;;;3.35;2.30;;;5.40;99.90;;;;;;5007867;28;20500;-69
2022/01/22 13:54:54;;;;;;;4.05;1.80;;;5.40;99.90;;;;;;5005864;28;20053;-69
2022/01/22 13:57:25;;;;;;;1.77;1.60;;;5.40;99.90;;;;;;5007527;28;20383;-69
2022/01/22 13:59:53;;;;;;;2.35;2.15;;;5.40;99.90;;;;;;5006792;28;20494;-68
2022/01/22 14:04:59;;;;;;;1.60;1.35;;;5.40;99.90;;;;;;5007051;28;20163;-68
2022/01/22 14:07:32;;;;;;;2.35;1.90;;;5.40;99.90;;;;;;5006406;28;20169;-68
2022/01/22 14:09:58;;;;;;;2.47;1.83;;;5.30;99.90;;;;;;5006518;28;20018;-69
2022/01/22 14:12:37;;;;;;;2.00;1.80;;;5.30;99.90;;;;;;5007816;28;20045;-69
2022/01/22 14:15:14;;;;;;;2.03;1.48;;;5.30;99.90;;;;;;5002660;28;20018;-69
2022/01/22 14:18:22;;;;;;;2.22;1.60;;;5.30;99.90;;;;;;5003726;28;20459;-68
2022/01/22 14:21:14;;;;;;;2.35;1.90;;;5.20;99.90;;;;;;4997086;28;20037;-68
2022/01/22 14:23:40;;;;;;;3.28;2.33;;;5.20;99.90;;;;;;5005809;28;20029;-69
2022/01/22 14:26:09;;;;;;;2.78;2.10;;;5.20;99.90;;;;;;5005696;28;20034;-68
2022/01/22 14:28:51;;;;;;;3.90;2.47;;;5.20;99.90;;;;;;5008025;28;20034;-68
2022/01/22 14:31:29;;;;;;;2.42;2.08;;;5.20;99.90;;;;;;5002722;28;20512;-69
2022/01/22 14:33:56;;;;;;;2.47;2.28;;;5.10;99.90;;;;;;5019955;28;20071;-68
2022/01/22 14:36:26;;;;;;;2.92;2.30;;;5.20;99.90;;;;;;5005878;28;20037;-68
2022/01/22 14:39:14;;;;;;;2.28;2.08;;;5.20;99.90;;;;;;5006226;28;20025;-68
2022/01/22 14:44:42;;;;;;;2.65;2.13;;;5.20;99.90;;;;;;5004493;28;20033;-69
2022/01/22 14:47:13;;;;;;;2.50;2.30;;;5.10;99.90;;;;;;5004083;28;20042;-68
2022/01/22 14:49:51;;;;;;;3.75;2.60;;;5.10;99.90;;;;;;5008499;28;20069;-68
2022/01/22 14:52:22;;;;;;;2.58;2.33;;;5.10;99.90;;;;;;5008900;28;20041;-68
2022/01/22 14:54:49;;;;;;;3.80;2.50;;;5.10;99.90;;;;;;5009369;28;20030;-69
2022/01/22 14:57:20;;;;;;;3.40;2.72;;;5.10;99.90;;;;;;5009586;28;20080;-68
2022/01/22 14:59:46;;;;;;;3.90;2.22;;;5.10;99.90;;;;;;5011664;28;20076;-68
2022/01/22 15:02:15;;;;;;;2.70;2.50;;;5.10;99.90;;;;;;5006665;28;20065;-69
2022/01/22 15:04:42;;;;;;;2.47;2.28;;;5.20;99.90;;;;;;5010362;28;20056;-68
2022/01/22 15:07:11;;;;;;;2.42;1.90;;;5.20;99.90;;;;;;5009425;28;20026;-68
2022/01/22 15:09:38;;;;;;;2.92;1.80;;;5.20;99.90;;;;;;5007667;28;20489;-69
2022/01/22 15:12:07;;;;;;;2.40;1.88;;;5.20;99.90;;;;;;5007270;28;20108;-69